METAR AND TAF INFORMATION
METAR FOR MGRT
ADDS - METARS form results

(1551 UTC 20 January 2019)
Data provider http://aviationweather.gov/metar/data/
 
METAR text: MGRT 201500Z 00000KT 9999 FEW018 BKN200 26/22 Q1017 A3003 VOL. STA. MARIA Y SANTIAGUITO EN ACTIVIDAD
Conditions at: MGRT (RETALHULEU (MIL/, GT) observed 1500 UTC 20 January 2019
Temperature: 26.0°C (79°F)
Dewpoint: 22.0°C (72°F) [RH = 79%]
Pressure (altimeter): 30.03 inches Hg (1017.0 mb)
Winds: calm
Visibility: 6 or more miles (10+ km)
Ceiling: 20000 feet AGL
Clouds: few clouds at 1800 feet AGL
broken clouds at 20000 feet AGL
Weather: SA  (sand)

 AIRPORT MAP

Esri Leaflet Quickstart
 RUNWAY INFORMATION
Runway 04 Runway length 5065 ft Runway width 100 ft
Runway elevation 0 ft Runway displaced threshold 0 ft Runway heading 50
Runway 22 Runway length 5065 ft Runway width 100 ft
Runway elevation 0 ft Runway displaced threshold 0 ft Runway heading 230

 AIRPORT FREQUENCIES
Type TWR Name TWR Frequency 118.8 MHZ

 AIRPORT NEAR NAVIGATION AIDS
Type NDB Name Retalhuleu Frequency 340 KHZ



Powered by Virtual Airlines Manager [v2.6.2]